FLX709 SBGL-SBGR
Flight info
| Callsign | FLX709 |
|---|---|
| Flight time | 1h 11m |
| Altitude | 30000 |
| Route | SIDUR UZ10 EDMUS |
| Aircraft | B77W/H-SDE1E2E3FGHIJ2J3J4J5M1RWXY/LB1D1 |
Departure
| Time | 2026-05-04 12:49 |
|---|---|
| Airport | Rio Galeão – Tom Jobim International Airport (SBGL) |
Arrival
| Time | 2026-05-04 14:00 |
|---|---|
| Airport | São Paulo/Guarulhos–Governor André Franco Montoro International Airport (SBGR) |
| Time | Latitude | Longitude | Altitude | Speed | Heading |
|---|---|---|---|---|---|
| 2026-05-04 12:25 | -22.81605 | -43.24949 | 38 ft | 0 kts | 217° |
| 2026-05-04 12:36 | -22.81599 | -43.24944 | 37 ft | 2 kts | 217° |
| 2026-05-04 12:37 | -22.81587 | -43.24934 | 38 ft | 2 kts | 217° |
| 2026-05-04 12:37 | -22.81576 | -43.24924 | 38 ft | 2 kts | 232° |
| 2026-05-04 12:37 | -22.81568 | -43.24910 | 38 ft | 2 kts | 249° |
| 2026-05-04 12:37 | -22.81564 | -43.24894 | 38 ft | 2 kts | 263° |
| 2026-05-04 12:38 | -22.81564 | -43.24878 | 38 ft | 2 kts | 278° |
| 2026-05-04 12:38 | -22.81568 | -43.24863 | 38 ft | 2 kts | 294° |
| 2026-05-04 12:38 | -22.81573 | -43.24852 | 38 ft | 0 kts | 305° |
| 2026-05-04 12:38 | -22.81574 | -43.24849 | 38 ft | 0 kts | 306° |
| 2026-05-04 12:40 | -22.81574 | -43.24850 | 37 ft | 0 kts | 306° |
| 2026-05-04 12:41 | -22.81562 | -43.24868 | 37 ft | 5 kts | 306° |
| 2026-05-04 12:41 | -22.81531 | -43.24913 | 37 ft | 9 kts | 306° |
| 2026-05-04 12:41 | -22.81488 | -43.24983 | 37 ft | 12 kts | 294° |
| 2026-05-04 12:41 | -22.81513 | -43.25063 | 37 ft | 12 kts | 219° |
| 2026-05-04 12:42 | -22.81583 | -43.25117 | 37 ft | 12 kts | 215° |
| 2026-05-04 12:42 | -22.81603 | -43.25189 | 37 ft | 11 kts | 291° |
| 2026-05-04 12:42 | -22.81560 | -43.25261 | 38 ft | 11 kts | 305° |
| 2026-05-04 12:42 | -22.81509 | -43.25338 | 37 ft | 13 kts | 305° |
| 2026-05-04 12:43 | -22.81449 | -43.25429 | 38 ft | 15 kts | 306° |
| 2026-05-04 12:43 | -22.81385 | -43.25524 | 38 ft | 15 kts | 306° |
| 2026-05-04 12:43 | -22.81325 | -43.25615 | 38 ft | 14 kts | 304° |
| 2026-05-04 12:43 | -22.81268 | -43.25703 | 38 ft | 13 kts | 305° |
| 2026-05-04 12:44 | -22.81213 | -43.25786 | 38 ft | 13 kts | 305° |
| 2026-05-04 12:44 | -22.81160 | -43.25867 | 38 ft | 12 kts | 304° |
| 2026-05-04 12:44 | -22.81097 | -43.25921 | 38 ft | 11 kts | 6° |
| 2026-05-04 12:44 | -22.81024 | -43.25882 | 38 ft | 11 kts | 35° |
| 2026-05-04 12:45 | -22.80954 | -43.25829 | 38 ft | 13 kts | 34° |
| 2026-05-04 12:45 | -22.80873 | -43.25767 | 38 ft | 14 kts | 35° |
| 2026-05-04 12:45 | -22.80793 | -43.25705 | 38 ft | 13 kts | 35° |
| 2026-05-04 12:45 | -22.80716 | -43.25646 | 38 ft | 13 kts | 35° |
| 2026-05-04 12:46 | -22.80643 | -43.25590 | 38 ft | 12 kts | 36° |
| 2026-05-04 12:46 | -22.80573 | -43.25537 | 38 ft | 11 kts | 28° |
| 2026-05-04 12:46 | -22.80499 | -43.25554 | 38 ft | 11 kts | 326° |
| 2026-05-04 12:46 | -22.80433 | -43.25602 | 38 ft | 11 kts | 331° |
| 2026-05-04 12:47 | -22.80361 | -43.25602 | 38 ft | 10 kts | 26° |
| 2026-05-04 12:47 | -22.80300 | -43.25555 | 38 ft | 10 kts | 37° |
| 2026-05-04 12:47 | -22.80242 | -43.25508 | 38 ft | 10 kts | 37° |
| 2026-05-04 12:47 | -22.80183 | -43.25472 | 38 ft | 9 kts | 43° |
| 2026-05-04 12:48 | -22.80155 | -43.25406 | 38 ft | 9 kts | 75° |
| 2026-05-04 12:48 | -22.80122 | -43.25279 | 38 ft | 42 kts | 73° |
| 2026-05-04 12:48 | -22.79968 | -43.24679 | 38 ft | 122 kts | 74° |
| 2026-05-04 12:48 | -22.79694 | -43.23569 | 221 ft | 171 kts | 76° |
| 2026-05-04 12:49 | -22.79404 | -43.22345 | 1075 ft | 172 kts | 75° |
| 2026-05-04 12:49 | -22.79136 | -43.21150 | 1879 ft | 167 kts | 75° |
| 2026-05-04 12:49 | -22.78854 | -43.19849 | 2280 ft | 184 kts | 76° |
| 2026-05-04 12:49 | -22.78555 | -43.18457 | 2715 ft | 201 kts | 76° |
| 2026-05-04 12:50 | -22.78225 | -43.16924 | 3243 ft | 217 kts | 75° |
| 2026-05-04 12:50 | -22.77870 | -43.15277 | 3777 ft | 234 kts | 75° |
| 2026-05-04 12:50 | -22.77490 | -43.13513 | 4298 ft | 251 kts | 75° |
| 2026-05-04 12:50 | -22.77079 | -43.11607 | 4962 ft | 263 kts | 75° |
| 2026-05-04 12:51 | -22.76663 | -43.09677 | 5728 ft | 269 kts | 75° |
| 2026-05-04 12:51 | -22.76235 | -43.07695 | 6472 ft | 276 kts | 75° |
| 2026-05-04 12:51 | -22.75798 | -43.05664 | 7228 ft | 281 kts | 75° |
| 2026-05-04 12:51 | -22.75353 | -43.03581 | 7959 ft | 287 kts | 74° |
| 2026-05-04 12:52 | -22.74521 | -43.01626 | 8641 ft | 290 kts | 50° |
| 2026-05-04 12:52 | -22.72999 | -43.00223 | 9280 ft | 292 kts | 25° |
| 2026-05-04 12:52 | -22.71060 | -42.99662 | 9945 ft | 292 kts | 359° |
| 2026-05-04 12:52 | -22.69065 | -42.99999 | 10487 ft | 299 kts | 340° |
| 2026-05-04 12:53 | -22.67035 | -43.00771 | 10899 ft | 316 kts | 337° |
| 2026-05-04 12:53 | -22.64939 | -43.01627 | 11342 ft | 332 kts | 336° |
| 2026-05-04 12:53 | -22.62848 | -43.02845 | 11832 ft | 344 kts | 321° |
| 2026-05-04 12:53 | -22.61138 | -43.04639 | 12537 ft | 349 kts | 306° |
| 2026-05-04 12:54 | -22.59916 | -43.06918 | 13413 ft | 351 kts | 291° |
| 2026-05-04 12:54 | -22.59028 | -43.09362 | 14402 ft | 354 kts | 289° |
| 2026-05-04 12:54 | -22.58185 | -43.11855 | 15457 ft | 356 kts | 288° |
| 2026-05-04 12:54 | -22.57352 | -43.14372 | 16549 ft | 358 kts | 288° |
| 2026-05-04 12:55 | -22.56529 | -43.16884 | 17576 ft | 361 kts | 287° |
| 2026-05-04 12:55 | -22.55697 | -43.19429 | 18542 ft | 365 kts | 287° |
| 2026-05-04 12:55 | -22.54850 | -43.22022 | 19135 ft | 370 kts | 287° |
| 2026-05-04 12:55 | -22.54174 | -43.24732 | 19245 ft | 370 kts | 278° |
| 2026-05-04 12:56 | -22.53956 | -43.27446 | 19259 ft | 368 kts | 269° |
| 2026-05-04 12:56 | -22.54192 | -43.30213 | 19251 ft | 367 kts | 259° |
| 2026-05-04 12:56 | -22.54784 | -43.32896 | 19262 ft | 368 kts | 256° |
| 2026-05-04 12:56 | -22.55425 | -43.35562 | 19252 ft | 367 kts | 256° |
| 2026-05-04 12:57 | -22.56060 | -43.38222 | 19246 ft | 366 kts | 256° |
| 2026-05-04 12:57 | -22.56694 | -43.40895 | 19246 ft | 366 kts | 256° |
| 2026-05-04 12:57 | -22.57320 | -43.43546 | 19241 ft | 367 kts | 256° |
| 2026-05-04 12:57 | -22.57952 | -43.46233 | 19248 ft | 367 kts | 256° |
| 2026-05-04 12:58 | -22.58580 | -43.48907 | 19242 ft | 366 kts | 256° |
| 2026-05-04 12:58 | -22.59198 | -43.51548 | 19251 ft | 367 kts | 256° |
| 2026-05-04 12:58 | -22.59827 | -43.54236 | 19249 ft | 367 kts | 256° |
| 2026-05-04 12:58 | -22.60448 | -43.56895 | 19241 ft | 366 kts | 256° |
| 2026-05-04 12:59 | -22.61070 | -43.59562 | 19238 ft | 367 kts | 256° |
| 2026-05-04 12:59 | -22.61707 | -43.62296 | 19712 ft | 382 kts | 256° |
| 2026-05-04 12:59 | -22.62354 | -43.65072 | 21020 ft | 377 kts | 257° |
| 2026-05-04 12:59 | -22.62979 | -43.67755 | 22284 ft | 372 kts | 257° |
| 2026-05-04 13:00 | -22.63611 | -43.70475 | 23282 ft | 374 kts | 257° |
| 2026-05-04 13:00 | -22.64246 | -43.73210 | 24118 ft | 378 kts | 257° |
| 2026-05-04 13:00 | -22.64877 | -43.75929 | 24977 ft | 380 kts | 257° |
| 2026-05-04 13:00 | -22.65524 | -43.78717 | 25840 ft | 382 kts | 257° |
| 2026-05-04 13:01 | -22.66165 | -43.81489 | 26650 ft | 385 kts | 257° |
| 2026-05-04 13:01 | -22.66816 | -43.84300 | 27466 ft | 387 kts | 258° |
| 2026-05-04 13:01 | -22.67467 | -43.87114 | 28238 ft | 390 kts | 258° |
| 2026-05-04 13:01 | -22.68123 | -43.89950 | 29012 ft | 392 kts | 258° |
| 2026-05-04 13:02 | -22.68781 | -43.92802 | 29768 ft | 394 kts | 258° |
| 2026-05-04 13:02 | -22.69447 | -43.95688 | 30207 ft | 397 kts | 258° |
| 2026-05-04 13:02 | -22.70128 | -43.98647 | 30255 ft | 413 kts | 258° |
| 2026-05-04 13:02 | -22.70834 | -44.01717 | 30253 ft | 429 kts | 258° |
| 2026-05-04 13:03 | -22.71569 | -44.04918 | 30264 ft | 445 kts | 258° |
| 2026-05-04 13:03 | -22.72322 | -44.08195 | 30265 ft | 458 kts | 258° |
| 2026-05-04 13:03 | -22.73094 | -44.11556 | 30263 ft | 460 kts | 258° |
| 2026-05-04 13:04 | -22.74659 | -44.18286 | 30271 ft | 461 kts | 255° |
| 2026-05-04 13:04 | -22.77187 | -44.24652 | 30291 ft | 465 kts | 243° |
| 2026-05-04 13:05 | -22.80722 | -44.30574 | 30277 ft | 468 kts | 240° |
| 2026-05-04 13:05 | -22.84289 | -44.36456 | 30269 ft | 467 kts | 240° |
| 2026-05-04 13:06 | -22.87855 | -44.42352 | 30267 ft | 467 kts | 240° |
| 2026-05-04 13:06 | -22.91403 | -44.48234 | 30260 ft | 468 kts | 240° |
| 2026-05-04 13:07 | -22.94974 | -44.54162 | 30263 ft | 468 kts | 240° |
| 2026-05-04 13:07 | -22.98509 | -44.60038 | 30256 ft | 466 kts | 240° |
| 2026-05-04 13:08 | -23.02046 | -44.65926 | 30275 ft | 467 kts | 240° |
| 2026-05-04 13:08 | -23.04781 | -44.72234 | 30271 ft | 461 kts | 259° |
| 2026-05-04 13:08 | -23.05069 | -44.75692 | 30278 ft | 461 kts | 271° |
| 2026-05-04 13:09 | -23.04589 | -44.79113 | 30276 ft | 464 kts | 283° |
| 2026-05-04 13:09 | -23.03351 | -44.82350 | 30282 ft | 471 kts | 296° |
| 2026-05-04 13:09 | -23.01383 | -44.85229 | 30276 ft | 480 kts | 308° |
| 2026-05-04 13:09 | -22.98791 | -44.87520 | 30284 ft | 494 kts | 322° |
| 2026-05-04 13:10 | -22.95591 | -44.89106 | 30280 ft | 508 kts | 336° |
| 2026-05-04 13:10 | -22.92079 | -44.89742 | 30279 ft | 525 kts | 352° |
| 2026-05-04 13:10 | -22.88369 | -44.89314 | 30279 ft | 541 kts | 8° |
| 2026-05-04 13:10 | -22.84829 | -44.87754 | 30276 ft | 559 kts | 25° |
| 2026-05-04 13:11 | -22.81788 | -44.85128 | 30294 ft | 572 kts | 43° |
| 2026-05-04 13:11 | -22.79397 | -44.81645 | 30327 ft | 578 kts | 54° |
| 2026-05-04 13:11 | -22.77324 | -44.77900 | 30343 ft | 580 kts | 56° |
| 2026-05-04 13:12 | -22.73292 | -44.70354 | 30372 ft | 584 kts | 64° |
| 2026-05-04 13:12 | -22.72184 | -44.66163 | 30359 ft | 587 kts | 82° |
| 2026-05-04 13:12 | -22.72180 | -44.61762 | 30345 ft | 587 kts | 100° |
| 2026-05-04 13:12 | -22.73304 | -44.57510 | 30342 ft | 581 kts | 118° |
| 2026-05-04 13:13 | -22.75395 | -44.53890 | 30349 ft | 569 kts | 135° |
| 2026-05-04 13:13 | -22.78305 | -44.51078 | 30329 ft | 554 kts | 153° |
| 2026-05-04 13:13 | -22.81712 | -44.49338 | 30305 ft | 537 kts | 170° |
| 2026-05-04 13:13 | -22.85355 | -44.48708 | 30284 ft | 518 kts | 186° |
| 2026-05-04 13:14 | -22.88879 | -44.49153 | 30279 ft | 501 kts | 201° |
| 2026-05-04 13:14 | -22.92050 | -44.50525 | 30267 ft | 486 kts | 216° |
| 2026-05-04 13:14 | -22.94741 | -44.52679 | 30271 ft | 475 kts | 229° |
| 2026-05-04 13:14 | -22.96786 | -44.55390 | 30270 ft | 466 kts | 241° |
| 2026-05-04 13:15 | -22.98345 | -44.58466 | 30270 ft | 465 kts | 245° |
| 2026-05-04 13:15 | -23.01512 | -44.64598 | 30285 ft | 465 kts | 242° |
| 2026-05-04 13:16 | -23.04428 | -44.70770 | 30266 ft | 462 kts | 256° |
| 2026-05-04 13:16 | -23.04938 | -44.74199 | 30272 ft | 461 kts | 268° |
| 2026-05-04 13:16 | -23.04670 | -44.77687 | 30278 ft | 462 kts | 280° |
| 2026-05-04 13:16 | -23.03653 | -44.80963 | 30276 ft | 468 kts | 292° |
| 2026-05-04 13:17 | -23.01892 | -44.83961 | 30277 ft | 477 kts | 305° |
| 2026-05-04 13:17 | -22.99428 | -44.86468 | 30278 ft | 489 kts | 318° |
| 2026-05-04 13:17 | -22.96423 | -44.88250 | 30281 ft | 502 kts | 332° |
| 2026-05-04 13:17 | -22.92970 | -44.89168 | 30284 ft | 519 kts | 347° |
| 2026-05-04 13:18 | -22.89332 | -44.89064 | 30281 ft | 535 kts | 3° |
| 2026-05-04 13:18 | -22.85712 | -44.87839 | 30277 ft | 554 kts | 20° |
| 2026-05-04 13:18 | -22.82464 | -44.85486 | 30286 ft | 568 kts | 38° |
| 2026-05-04 13:18 | -22.79890 | -44.82212 | 30323 ft | 578 kts | 52° |
| 2026-05-04 13:19 | -22.77731 | -44.78534 | 30339 ft | 580 kts | 56° |
| 2026-05-04 13:19 | -22.73587 | -44.71036 | 30374 ft | 582 kts | 61° |
| 2026-05-04 13:19 | -22.72272 | -44.66892 | 30358 ft | 587 kts | 79° |
| 2026-05-04 13:20 | -22.72057 | -44.62509 | 30346 ft | 588 kts | 97° |
| 2026-05-04 13:20 | -22.72946 | -44.58277 | 30345 ft | 582 kts | 114° |
| 2026-05-04 13:20 | -22.74888 | -44.54459 | 30347 ft | 571 kts | 132° |
| 2026-05-04 13:20 | -22.77659 | -44.51476 | 30332 ft | 556 kts | 150° |
| 2026-05-04 13:21 | -22.81003 | -44.49527 | 30305 ft | 541 kts | 167° |
| 2026-05-04 13:21 | -22.84610 | -44.48694 | 30287 ft | 520 kts | 184° |
| 2026-05-04 13:21 | -22.88160 | -44.48942 | 30284 ft | 504 kts | 199° |
| 2026-05-04 13:21 | -22.91410 | -44.50145 | 30270 ft | 488 kts | 213° |
| 2026-05-04 13:22 | -22.94202 | -44.52158 | 30272 ft | 476 kts | 226° |
| 2026-05-04 13:22 | -22.96377 | -44.54771 | 30267 ft | 468 kts | 239° |
| 2026-05-04 13:22 | -22.98006 | -44.57827 | 30275 ft | 464 kts | 245° |
| 2026-05-04 13:23 | -23.01128 | -44.63917 | 30285 ft | 465 kts | 242° |
| 2026-05-04 13:23 | -23.04220 | -44.70062 | 30270 ft | 462 kts | 253° |
| 2026-05-04 13:23 | -23.04899 | -44.73472 | 30266 ft | 460 kts | 265° |
| 2026-05-04 13:24 | -23.04803 | -44.76937 | 30279 ft | 462 kts | 277° |
| 2026-05-04 13:24 | -23.03947 | -44.80283 | 30275 ft | 467 kts | 289° |
| 2026-05-04 13:24 | -23.02333 | -44.83377 | 30279 ft | 474 kts | 302° |
| 2026-05-04 13:25 | -22.97164 | -44.87929 | 30285 ft | 500 kts | 329° |
| 2026-05-04 13:25 | -22.93801 | -44.89064 | 30285 ft | 517 kts | 343° |
| 2026-05-04 13:25 | -22.90151 | -44.89202 | 30281 ft | 533 kts | 359° |
| 2026-05-04 13:25 | -22.86416 | -44.88520 | 30289 ft | 542 kts | 7° |
| 2026-05-04 13:26 | -22.82867 | -44.87091 | 30277 ft | 555 kts | 22° |
| 2026-05-04 13:26 | -22.79669 | -44.84729 | 30307 ft | 566 kts | 36° |
| 2026-05-04 13:26 | -22.76939 | -44.81554 | 30318 ft | 578 kts | 52° |
| 2026-05-04 13:26 | -22.75070 | -44.77692 | 30346 ft | 584 kts | 69° |
| 2026-05-04 13:27 | -22.74214 | -44.73410 | 30380 ft | 587 kts | 86° |
| 2026-05-04 13:27 | -22.74442 | -44.69051 | 30372 ft | 586 kts | 103° |
| 2026-05-04 13:27 | -22.75741 | -44.64912 | 30374 ft | 578 kts | 121° |
| 2026-05-04 13:27 | -22.77971 | -44.61354 | 30358 ft | 566 kts | 137° |
| 2026-05-04 13:28 | -22.80916 | -44.58609 | 30330 ft | 553 kts | 153° |
| 2026-05-04 13:28 | -22.84319 | -44.56816 | 30312 ft | 538 kts | 168° |
| 2026-05-04 13:28 | -22.87936 | -44.56014 | 30300 ft | 521 kts | 183° |
| 2026-05-04 13:28 | -22.91508 | -44.56175 | 30277 ft | 505 kts | 197° |
| 2026-05-04 13:29 | -22.94829 | -44.57204 | 30279 ft | 492 kts | 209° |
| 2026-05-04 13:29 | -22.97762 | -44.58970 | 30268 ft | 481 kts | 221° |
| 2026-05-04 13:29 | -23.00215 | -44.61353 | 30268 ft | 471 kts | 233° |
| 2026-05-04 13:29 | -23.02108 | -44.64227 | 30276 ft | 465 kts | 243° |
| 2026-05-04 13:30 | -23.05063 | -44.70423 | 30274 ft | 463 kts | 250° |
| 2026-05-04 13:30 | -23.06788 | -44.77086 | 30281 ft | 461 kts | 262° |
| 2026-05-04 13:31 | -23.07737 | -44.83945 | 30285 ft | 460 kts | 262° |
| 2026-05-04 13:31 | -23.08826 | -44.90822 | 30281 ft | 461 kts | 259° |
| 2026-05-04 13:32 | -23.10116 | -44.97584 | 30279 ft | 461 kts | 258° |
| 2026-05-04 13:32 | -23.11484 | -45.04364 | 30181 ft | 451 kts | 258° |
| 2026-05-04 13:33 | -23.12174 | -45.07655 | 29700 ft | 442 kts | 257° |
| 2026-05-04 13:33 | -23.12852 | -45.10840 | 29140 ft | 436 kts | 257° |
| 2026-05-04 13:33 | -23.13541 | -45.14041 | 28589 ft | 429 kts | 257° |
| 2026-05-04 13:33 | -23.14218 | -45.17162 | 28097 ft | 422 kts | 257° |
| 2026-05-04 13:34 | -23.14885 | -45.20220 | 27609 ft | 416 kts | 257° |
| 2026-05-04 13:34 | -23.15549 | -45.23250 | 27120 ft | 410 kts | 257° |
| 2026-05-04 13:34 | -23.16200 | -45.26211 | 26633 ft | 404 kts | 257° |
| 2026-05-04 13:34 | -23.16853 | -45.29181 | 26140 ft | 398 kts | 257° |
| 2026-05-04 13:35 | -23.17489 | -45.32066 | 25665 ft | 393 kts | 257° |
| 2026-05-04 13:35 | -23.18739 | -45.37738 | 24709 ft | 383 kts | 257° |
| 2026-05-04 13:35 | -23.19358 | -45.40540 | 24236 ft | 378 kts | 257° |
| 2026-05-04 13:36 | -23.19969 | -45.43296 | 23770 ft | 373 kts | 257° |
| 2026-05-04 13:36 | -23.20565 | -45.45983 | 23314 ft | 369 kts | 257° |
| 2026-05-04 13:36 | -23.21167 | -45.48704 | 22840 ft | 365 kts | 257° |
| 2026-05-04 13:36 | -23.21755 | -45.51359 | 22356 ft | 361 kts | 257° |
| 2026-05-04 13:37 | -23.22334 | -45.53980 | 21899 ft | 356 kts | 257° |
| 2026-05-04 13:37 | -23.22913 | -45.56566 | 21450 ft | 352 kts | 256° |
| 2026-05-04 13:37 | -23.23607 | -45.59095 | 21007 ft | 348 kts | 254° |
| 2026-05-04 13:37 | -23.24086 | -45.60768 | 20710 ft | 346 kts | 254° |
| 2026-05-04 13:38 | -23.25020 | -45.64066 | 20119 ft | 341 kts | 254° |
| 2026-05-04 13:38 | -23.25705 | -45.66516 | 19686 ft | 337 kts | 255° |
| 2026-05-04 13:38 | -23.26380 | -45.68953 | 19255 ft | 335 kts | 255° |
| 2026-05-04 13:38 | -23.27055 | -45.71396 | 18817 ft | 346 kts | 255° |
| 2026-05-04 13:39 | -23.27748 | -45.73910 | 18355 ft | 346 kts | 255° |
| 2026-05-04 13:39 | -23.28434 | -45.76399 | 17902 ft | 344 kts | 255° |
| 2026-05-04 13:39 | -23.29110 | -45.78854 | 17462 ft | 342 kts | 254° |
| 2026-05-04 13:39 | -23.29790 | -45.81327 | 17015 ft | 341 kts | 254° |
| 2026-05-04 13:40 | -23.30471 | -45.83805 | 16559 ft | 341 kts | 254° |
| 2026-05-04 13:40 | -23.31145 | -45.86259 | 16103 ft | 340 kts | 254° |
| 2026-05-04 13:40 | -23.31819 | -45.88716 | 15638 ft | 339 kts | 254° |
| 2026-05-04 13:40 | -23.32490 | -45.91158 | 15183 ft | 338 kts | 253° |
| 2026-05-04 13:41 | -23.33178 | -45.93595 | 14978 ft | 335 kts | 253° |
| 2026-05-04 13:41 | -23.33867 | -45.96013 | 14865 ft | 338 kts | 253° |
| 2026-05-04 13:41 | -23.34562 | -45.98460 | 14717 ft | 337 kts | 253° |
| 2026-05-04 13:42 | -23.35935 | -46.03306 | 14389 ft | 337 kts | 253° |
| 2026-05-04 13:42 | -23.36627 | -46.05755 | 14224 ft | 336 kts | 253° |
| 2026-05-04 13:42 | -23.37312 | -46.08179 | 14056 ft | 336 kts | 253° |
| 2026-05-04 13:42 | -23.37992 | -46.10587 | 13886 ft | 336 kts | 253° |
| 2026-05-04 13:43 | -23.38680 | -46.13026 | 13716 ft | 335 kts | 253° |
| 2026-05-04 13:43 | -23.39365 | -46.15454 | 13548 ft | 334 kts | 253° |
| 2026-05-04 13:43 | -23.40049 | -46.17881 | 13377 ft | 335 kts | 253° |
| 2026-05-04 13:43 | -23.40725 | -46.20284 | 13213 ft | 333 kts | 253° |
| 2026-05-04 13:44 | -23.41398 | -46.22673 | 13050 ft | 332 kts | 253° |
| 2026-05-04 13:44 | -23.42073 | -46.25076 | 12884 ft | 332 kts | 253° |
| 2026-05-04 13:44 | -23.42728 | -46.27500 | 12704 ft | 331 kts | 258° |
| 2026-05-04 13:44 | -23.42858 | -46.29977 | 12534 ft | 331 kts | 276° |
| 2026-05-04 13:45 | -23.42246 | -46.32379 | 12366 ft | 331 kts | 294° |
| 2026-05-04 13:45 | -23.41113 | -46.34580 | 12214 ft | 332 kts | 300° |
| 2026-05-04 13:45 | -23.39889 | -46.36688 | 12056 ft | 330 kts | 301° |
| 2026-05-04 13:45 | -23.38622 | -46.38806 | 11887 ft | 330 kts | 301° |
| 2026-05-04 13:46 | -23.37375 | -46.40873 | 11725 ft | 329 kts | 302° |
| 2026-05-04 13:46 | -23.36109 | -46.42969 | 11555 ft | 328 kts | 302° |
| 2026-05-04 13:46 | -23.34861 | -46.45033 | 11394 ft | 327 kts | 302° |
| 2026-05-04 13:46 | -23.33623 | -46.47081 | 11233 ft | 326 kts | 302° |
| 2026-05-04 13:47 | -23.32365 | -46.49161 | 11063 ft | 326 kts | 302° |
| 2026-05-04 13:47 | -23.31125 | -46.51212 | 10889 ft | 319 kts | 302° |
| 2026-05-04 13:47 | -23.29934 | -46.53178 | 10723 ft | 309 kts | 302° |
| 2026-05-04 13:47 | -23.28769 | -46.55103 | 10566 ft | 298 kts | 302° |
| 2026-05-04 13:48 | -23.27649 | -46.56953 | 10413 ft | 289 kts | 302° |
| 2026-05-04 13:48 | -23.26595 | -46.58779 | 10260 ft | 279 kts | 295° |
| 2026-05-04 13:48 | -23.25888 | -46.60706 | 10094 ft | 272 kts | 289° |
| 2026-05-04 13:48 | -23.25291 | -46.62638 | 9884 ft | 269 kts | 288° |
| 2026-05-04 13:49 | -23.24705 | -46.64557 | 9681 ft | 268 kts | 288° |
| 2026-05-04 13:49 | -23.24111 | -46.66488 | 9486 ft | 269 kts | 289° |
| 2026-05-04 13:49 | -23.23563 | -46.68410 | 9279 ft | 268 kts | 281° |
| 2026-05-04 13:49 | -23.23578 | -46.70426 | 9086 ft | 269 kts | 263° |
| 2026-05-04 13:50 | -23.23903 | -46.72446 | 8891 ft | 269 kts | 261° |
| 2026-05-04 13:50 | -23.24266 | -46.74422 | 8699 ft | 268 kts | 261° |
| 2026-05-04 13:50 | -23.24634 | -46.76407 | 8502 ft | 268 kts | 261° |
| 2026-05-04 13:50 | -23.25002 | -46.78393 | 8305 ft | 269 kts | 259° |
| 2026-05-04 13:51 | -23.25748 | -46.80260 | 8076 ft | 271 kts | 238° |
| 2026-05-04 13:51 | -23.26915 | -46.81844 | 7846 ft | 268 kts | 232° |
| 2026-05-04 13:51 | -23.28137 | -46.83344 | 7609 ft | 262 kts | 231° |
| 2026-05-04 13:51 | -23.29475 | -46.84688 | 7358 ft | 260 kts | 213° |
| 2026-05-04 13:52 | -23.32942 | -46.84994 | 6827 ft | 256 kts | 157° |
| 2026-05-04 13:52 | -23.34360 | -46.83910 | 6562 ft | 249 kts | 130° |
| 2026-05-04 13:52 | -23.35421 | -46.82423 | 6316 ft | 244 kts | 123° |
| 2026-05-04 13:53 | -23.36369 | -46.80915 | 6074 ft | 241 kts | 121° |
| 2026-05-04 13:53 | -23.37293 | -46.79398 | 5829 ft | 238 kts | 121° |
| 2026-05-04 13:53 | -23.38200 | -46.77903 | 5587 ft | 236 kts | 121° |
| 2026-05-04 13:54 | -23.39983 | -46.74964 | 5148 ft | 228 kts | 121° |
| 2026-05-04 13:54 | -23.40853 | -46.73531 | 5084 ft | 222 kts | 121° |
| 2026-05-04 13:54 | -23.42547 | -46.70732 | 4973 ft | 221 kts | 121° |
| 2026-05-04 13:55 | -23.43405 | -46.69344 | 4910 ft | 220 kts | 122° |
| 2026-05-04 13:55 | -23.45133 | -46.66604 | 4773 ft | 219 kts | 122° |
| 2026-05-04 13:55 | -23.46000 | -46.65221 | 4722 ft | 219 kts | 122° |
| 2026-05-04 13:56 | -23.46850 | -46.63858 | 4667 ft | 218 kts | 119° |
| 2026-05-04 13:56 | -23.47289 | -46.62296 | 4612 ft | 216 kts | 89° |
| 2026-05-04 13:56 | -23.46794 | -46.59376 | 4405 ft | 176 kts | 70° |
| 2026-05-04 13:57 | -23.46450 | -46.58177 | 4192 ft | 156 kts | 71° |
| 2026-05-04 13:57 | -23.46155 | -46.57079 | 4014 ft | 148 kts | 72° |
| 2026-05-04 13:58 | -23.45307 | -46.53951 | 3454 ft | 141 kts | 72° |
| 2026-05-04 13:58 | -23.44758 | -46.51913 | 3057 ft | 141 kts | 72° |
| 2026-05-04 13:58 | -23.44491 | -46.50889 | 2861 ft | 140 kts | 72° |
| 2026-05-04 13:59 | -23.44207 | -46.49878 | 2694 ft | 139 kts | 73° |
| 2026-05-04 13:59 | -23.43937 | -46.48874 | 2520 ft | 139 kts | 72° |
| 2026-05-04 13:59 | -23.43492 | -46.47251 | 2473 ft | 80 kts | 73° |
| 2026-05-04 14:00 | -23.43357 | -46.46752 | 2473 ft | 56 kts | 74° |
| 2026-05-04 14:00 | -23.43191 | -46.46341 | 2473 ft | 14 kts | 44° |
| 2026-05-04 14:00 | -23.43122 | -46.46270 | 2473 ft | 13 kts | 44° |
| 2026-05-04 14:01 | -23.43059 | -46.46203 | 2473 ft | 12 kts | 45° |
| 2026-05-04 14:01 | -23.42998 | -46.46147 | 2473 ft | 10 kts | 24° |
| 2026-05-04 14:01 | -23.42853 | -46.46178 | 2473 ft | 11 kts | 343° |
| 2026-05-04 14:02 | -23.42770 | -46.46205 | 2474 ft | 12 kts | 343° |
| 2026-05-04 14:02 | -23.42702 | -46.46251 | 2474 ft | 11 kts | 284° |
| 2026-05-04 14:02 | -23.42715 | -46.46336 | 2473 ft | 11 kts | 253° |
| 2026-05-04 14:02 | -23.42738 | -46.46419 | 2474 ft | 11 kts | 254° |
| 2026-05-04 14:03 | -23.42761 | -46.46503 | 2473 ft | 11 kts | 252° |
| 2026-05-04 14:03 | -23.42783 | -46.46585 | 2473 ft | 11 kts | 254° |
| 2026-05-04 14:03 | -23.42805 | -46.46666 | 2473 ft | 11 kts | 254° |
| 2026-05-04 14:03 | -23.42827 | -46.46751 | 2473 ft | 11 kts | 254° |
| 2026-05-04 14:04 | -23.42871 | -46.46918 | 2473 ft | 11 kts | 254° |
| 2026-05-04 14:04 | -23.42893 | -46.46999 | 2473 ft | 11 kts | 253° |
| 2026-05-04 14:04 | -23.42913 | -46.47080 | 2473 ft | 10 kts | 274° |
| 2026-05-04 14:05 | -23.42796 | -46.47152 | 2473 ft | 9 kts | 345° |
| 2026-05-04 14:05 | -23.42733 | -46.47162 | 2473 ft | 7 kts | 19° |
| 2026-05-04 14:05 | -23.42701 | -46.47113 | 2473 ft | 8 kts | 73° |
| 2026-05-04 14:06 | -23.42689 | -46.47068 | 2473 ft | 0 kts | 73° |